AirNav   TITAN Aviation Fuels
 
 1058 users online  

3WA7 Kent Benaroya Heliport
Kent, Washington, USA

GOING TO KENT?


FAA INFORMATION EFFECTIVE 22 APRIL 2021

Location

FAA Identifier: 3WA7
Lat/Long: 47-24-52.3600N 122-13-49.4370W
47-24.872667N 122-13.823950W
47.4145444,-122.2303992
(estimated)
Elevation: 25 ft. / 8 m (estimated)
Variation: 20E (1985)
From city: 2 miles N of KENT, WA
Time zone: UTC -7 (UTC -8 during Standard Time)
Zip code: 98032

Heliport Operations

Heliport use: Private use. Permission required prior to landing
Activation date: 10/1973
Control tower: no
ARTCC: SEATTLE CENTER
FSS: SEATTLE FLIGHT SERVICE STATION
Attendance: UNATNDD
Wind indicator: yes
Segmented circle: no

Heliport Communications

WX ASOS at SEA (4 nm NW): 127.75 (206-214-2592)
WX ASOS at RNT (5 nm N): 126.95 (425-255-6080)
WX ASOS at BFI (8 nm NW): PHONE 206-658-6435
WX ASOS at TIW (17 nm SW): 124.05 (253-858-6507)
WX AWOS-3 at PLU (19 nm S): 128.575 (253-848-2748)
WX ASOS at TCM (19 nm SW): PHONE 253-982-3434

Nearby radio navigation aids

VOR radial/distance  VOR name  Freq  Var
SEAr092/3.4SEATTLE VORTAC116.8019E
PAEr156/30.4PAINE VOR/DME110.6020E
OLMr027/38.2OLYMPIA VORTAC113.4019E

Heliport Services

Airframe service: NONE
Powerplant service: NONE

Runway Information

Helipad H1

Dimensions: 50 x 50 ft. / 15 x 15 m
Surface: turf, in fair condition
Latitude: 47-24.872667N
Longitude: 122-13.823950W
Elevation: 25.0 ft.
Traffic pattern: rightleft
Markings: none, in fair condition

Heliport Ownership and Management from official FAA records

Ownership: Privately-owned
Owner: BOEING COMPANY
PO BOX 3707 MAIL STOP 89-04
SEATTLE, WA 98124
Phone 206-773-9623
Manager: DON WALKER
PO BOX 3707; MAIL STOP 6Y-59
SEATTLE, WA 98124
Phone 206-393-3884

Additional Remarks

A52-H1 BLDG 7-48-01 30' WEST LGTD/MKD.
FOR CD CTC SEATTLE APCH AT 206-214-4794.

Instrument Procedures

There are no published instrument procedures at 3WA7.

Some nearby airports with instrument procedures:

KSEA - Seattle-Tacoma International Airport (4 nm NW)
KRNT - Renton Municipal Airport (5 nm N)
S50 - Auburn Municipal Airport (5 nm S)
KBFI - Boeing Field/King County International Airport (8 nm NW)
KTIW - Tacoma Narrows Airport (17 nm SW)
KPLU - Pierce County Airport - Thun Field (19 nm S)
KTCM - McChord Field Airport (Joint Base Lewis-McChord) (19 nm SW)
 
Loc | Ops | Rwys | IFR | FBO | Links
Com | Nav | Svcs | Stats | Notes
Area around 3WA7 (Kent Benaroya Heliport)
 
Road maps at: MapQuest Bing Google
 
Aerial photo
No photo
 
Sectional chart

 
Airport distance calculator
Flying to Kent Benaroya Heliport? Find the distance to fly.

From to 3WA7

Sunrise and sunset
Times for 15-May-2021
 Local
(UTC-7)
 Zulu
(UTC)
Morning civil twilight04:5611:56
Sunrise05:3312:33
Sunset20:3803:38
Evening civil twilight21:1404:14

Current date and time
Zulu (UTC)  15-May-2021 21:57:21
Local (UTC-7)  15-May-2021 14:57:21
 
METAR
KSEA 
4nm NW 
152153Z 31007KT 10SM FEW250 22/09 A3007 RMK AO2 SLP187 T02170089
KRNT 
5nm N 
152153Z 33007KT 10SM CLR 22/09 A3005 RMK AO2 SLP182 T02170089
KBFI 
9nm NW 
152153Z 32007KT 10SM CLR 21/09 A3006 RMK AO2 SLP178 T02110089
KTIW 
17nm SW 
152153Z VRB06KT 10SM CLR 21/09 A3006 RMK AO2 SLP179 T02060089
KPLU 
19nm S 
152135Z AUTO VRB06KT 10SM CLR 22/06 A3007 RMK AO2
TAF
KSEA 
4nm NW 
152004Z 1520/1624 33009KT P6SM FEW250 FM160300 35006KT P6SM SKC FM160700 02004KT P6SM SKC FM161300 25004KT P6SM FEW010 FM161800 22004KT P6SM SKC
KBFI 
9nm NW 
151720Z 1518/1618 35005KT P6SM SKC FM152000 35010KT P6SM FEW050 FM160300 35006KT P6SM SKC FM160700 02004KT P6SM SKC FM161300 25004KT P6SM FEW013
NOTAMs
Click for the latest NOTAMs
NOTAMs are issued by the DoD/FAA and will open in a separate window not controlled by AirNav.

 

 
 

Would you like to see your business listed on this page?

 If your business provides an interesting product or service to pilots, flight crews, aircraft, or users of the Kent Benaroya Heliport, you should consider listing it here.  To start the listing process, click on the button below
 
Add a business
 

Other Pages about Kent Benaroya Heliport

Update a link
 
Copyright © AirNav, LLC. All rights reserved. Privacy Policy  Contact